Terminal Aerodrome Forecast
Issued by NWS

Home | Current Version | Previous Version | Text Only | Print | Product List | Glossary On
Versions: 1 2 3 4 5 6 7 8 9 10 11 12 13 14 15
000
FTAK31 PAJN 251100
TAFAYA
TAF
PAYA 251139Z 2512/2612 VRB03KT P6SM VCSH OVC020
     FM251400 VRB05KT P6SM VCSH SCT015 OVC020
     FM251900 28005KT P6SM OVC025
     FM252300 27004KT P6SM FEW025 BKN040
     FM260600 VRB03KT P6SM BKN025
      AMD LTD TO CLD VIS AND WIND 2601/2610=

USA.gov is the U.S. government's official web portal to all federal, state and local government web resources and services.